createdAt,value
2023-04-05T00:01:56.616Z,99678.34
2023-04-05T00:04:25.277Z,99678.83
2023-04-05T00:06:54.286Z,99673.86
2023-04-05T00:09:22.644Z,99678.27
2023-04-05T00:11:51.101Z,99673.70
2023-04-05T00:14:19.455Z,99667.09
2023-04-05T00:16:48.628Z,99665.20
2023-04-05T00:19:17.488Z,99660.45
2023-04-05T00:21:54.613Z,99661.06
2023-04-05T00:24:23.261Z,99663.13
2023-04-05T00:26:51.510Z,99664.05
2023-04-05T00:29:19.795Z,99662.34
2023-04-05T00:31:48.098Z,99660.52
2023-04-05T00:34:16.850Z,99653.03
2023-04-05T00:36:46.537Z,99649.04
2023-04-05T00:39:14.952Z,99652.93
2023-04-05T00:41:46.877Z,99652.17
2023-04-05T00:44:17.764Z,99651.14
2023-04-05T00:46:48.882Z,99650.95
2023-04-05T00:49:17.918Z,99649.50
2023-04-05T00:51:46.810Z,99649.38
2023-04-05T00:54:15.982Z,99647.81
2023-04-05T00:56:44.420Z,99635.11
2023-04-05T00:59:12.719Z,99626.22
2023-04-05T01:01:41.884Z,99621.68
2023-04-05T01:04:11.938Z,99616.34
2023-04-05T01:07:00.481Z,99617.77
2023-04-05T01:09:38.748Z,99614.69
2023-04-05T01:12:10.336Z,99611.46
2023-04-05T01:14:50.862Z,99607.02
2023-04-05T01:17:22.864Z,99606.10
2023-04-05T01:19:54.510Z,99603.20
2023-04-05T01:22:28.871Z,99598.31
2023-04-05T01:25:06.912Z,99593.44
2023-04-05T01:28:19.989Z,99591.06
2023-04-05T01:30:54.543Z,99587.30
2023-04-05T01:33:35.082Z,99585.77
2023-04-05T01:36:39.935Z,99585.02
2023-04-05T01:39:11.638Z,99576.95
2023-04-05T01:41:40.798Z,99577.75
2023-04-05T01:44:10.655Z,99573.90
2023-04-05T01:46:39.364Z,99574.23
2023-04-05T01:49:08.540Z,99572.15
2023-04-05T01:51:42.237Z,99566.33
2023-04-05T01:54:10.637Z,99566.41
2023-04-05T01:56:38.977Z,99562.98
2023-04-05T01:59:07.412Z,99564.89
2023-04-05T02:01:36.274Z,99562.88
2023-04-05T02:04:05.672Z,99568.15
2023-04-05T02:06:42.392Z,99565.23
2023-04-05T02:09:11.128Z,99565.60
2023-04-05T02:11:39.561Z,99560.93
2023-04-05T02:14:09.705Z,99559.05
2023-04-05T02:16:38.596Z,99557.65
2023-04-05T02:19:07.149Z,99558.15
2023-04-05T02:21:37.952Z,99553.91
2023-04-05T02:24:06.430Z,99550.46
2023-04-05T02:26:34.708Z,99546.95
2023-04-05T02:29:03.025Z,99547.20
2023-04-05T02:31:31.361Z,99543.48
2023-04-05T02:34:01.175Z,99538.35
2023-04-05T02:36:30.003Z,99534.52
2023-04-05T02:38:58.459Z,99532.48
2023-04-05T02:41:29.862Z,99533.98
2023-04-05T02:44:00.192Z,99530.30
2023-04-05T02:46:30.660Z,99526.63
2023-04-05T02:48:59.354Z,99524.33
2023-04-05T02:51:28.762Z,99523.41
2023-04-05T02:53:57.496Z,99516.98
2023-04-05T02:56:26.807Z,99516.95
2023-04-05T02:58:56.627Z,99512.73
2023-04-05T03:01:26.911Z,99511.20
2023-04-05T03:03:57.057Z,99509.34
2023-04-05T03:06:26.769Z,99507.45
2023-04-05T03:08:57.888Z,99501.93
2023-04-05T03:11:26.677Z,99501.22
2023-04-05T03:14:06.096Z,99503.58
2023-04-05T03:16:41.757Z,99498.75
2023-04-05T03:19:28.847Z,99497.86
2023-04-05T03:22:02.622Z,99495.02
2023-04-05T03:24:34.472Z,99495.29
2023-04-05T03:27:06.278Z,99490.86
2023-04-05T03:29:49.626Z,99487.11
2023-04-05T03:32:18.896Z,99487.73
2023-04-05T03:34:52.224Z,99487.41
2023-04-05T03:37:21.103Z,99485.63
2023-04-05T03:39:59.902Z,99492.04
2023-04-05T03:42:28.171Z,99490.08
2023-04-05T03:44:56.920Z,99485.42
2023-04-05T03:47:28.154Z,99484.62
2023-04-05T03:49:56.458Z,99487.01
2023-04-05T03:52:24.773Z,99486.64
2023-04-05T03:54:54.714Z,99483.00
2023-04-05T03:57:24.622Z,99474.64
2023-04-05T03:59:55.584Z,99476.30
2023-04-05T04:02:25.115Z,99476.61
2023-04-05T04:04:54.140Z,99473.46
2023-04-05T04:07:22.420Z,99468.27
2023-04-05T04:09:50.804Z,99462.09
2023-04-05T04:12:19.084Z,99457.66
2023-04-05T04:14:57.867Z,99448.58
2023-04-05T04:17:39.932Z,99440.23
2023-04-05T04:20:39.120Z,99440.69
2023-04-05T04:23:18.831Z,99438.21
2023-04-05T04:26:07.467Z,99433.62
2023-04-05T04:28:56.937Z,99427.05
2023-04-05T04:31:38.801Z,99428.69
2023-04-05T04:34:26.714Z,99430.38
2023-04-05T04:37:22.920Z,99430.63
2023-04-05T04:40:09.118Z,99429.70
2023-04-05T04:43:00.354Z,99435.23
2023-04-05T04:45:55.027Z,99443.64
2023-04-05T04:48:38.325Z,99443.64
2023-04-05T04:51:33.932Z,99442.48
2023-04-05T04:54:02.348Z,99431.06
2023-04-05T04:56:31.592Z,99428.05
2023-04-05T04:59:01.208Z,99421.16
2023-04-05T05:01:34.299Z,99416.80
2023-04-05T05:04:04.641Z,99422.70
2023-04-05T05:06:37.890Z,99420.25
2023-04-05T05:09:06.740Z,99415.09
2023-04-05T05:11:41.130Z,99405.38
2023-04-05T05:14:11.905Z,99397.00
2023-04-05T05:16:40.248Z,99395.27
2023-04-05T05:19:11.559Z,99399.20
2023-04-05T05:21:47.198Z,99403.96
2023-04-05T05:24:15.470Z,99396.61
2023-04-05T05:26:43.897Z,99390.46
2023-04-05T05:29:12.192Z,99390.09
2023-04-05T05:31:43.775Z,99393.36
2023-04-05T05:34:12.367Z,99392.85
2023-04-05T05:36:44.014Z,99388.91
2023-04-05T05:39:13.011Z,99387.83
2023-04-05T05:41:41.260Z,99385.99
2023-04-05T05:44:09.898Z,99380.23
2023-04-05T05:46:40.755Z,99378.70
2023-04-05T05:49:09.652Z,99381.29
2023-04-05T05:51:37.946Z,99386.83
2023-04-05T05:54:07.113Z,99387.30
2023-04-05T05:56:35.372Z,99385.96
2023-04-05T05:59:04.246Z,99384.56
2023-04-05T06:01:34.608Z,99375.80
2023-04-05T06:04:03.094Z,99375.85
2023-04-05T06:06:35.110Z,99369.02
2023-04-05T06:09:11.930Z,99364.97
2023-04-05T06:11:53.146Z,99363.32
2023-04-05T06:14:25.320Z,99370.15
2023-04-05T06:16:53.887Z,99369.39
2023-04-05T06:19:23.319Z,99366.23
2023-04-05T06:21:51.620Z,99356.69
2023-04-05T06:24:22.378Z,99358.00
2023-04-05T06:26:52.142Z,99354.23
2023-04-05T06:29:21.007Z,99351.90
2023-04-05T06:31:49.577Z,99355.08
2023-04-05T06:34:18.034Z,99348.33
2023-04-05T06:36:47.816Z,99342.56
2023-04-05T06:39:16.980Z,99342.74
2023-04-05T06:41:45.626Z,99339.16
2023-04-05T06:44:14.600Z,99337.09
2023-04-05T06:46:42.997Z,99330.99
2023-04-05T06:49:11.269Z,99331.80
2023-04-05T06:51:39.834Z,99321.08
2023-04-05T06:54:08.640Z,99321.73
2023-04-05T06:56:39.298Z,99312.65
2023-04-05T06:59:07.739Z,99309.89
2023-04-05T07:01:37.574Z,99295.80
2023-04-05T07:04:07.223Z,99294.59
2023-04-05T07:06:39.244Z,99285.84
2023-04-05T07:09:08.883Z,99288.02
2023-04-05T07:11:40.111Z,99283.08
2023-04-05T07:14:08.497Z,99273.93
2023-04-05T07:16:41.766Z,99275.73
2023-04-05T07:19:10.815Z,99274.28
2023-04-05T07:21:39.117Z,99271.77
2023-04-05T07:24:07.757Z,99277.27
2023-04-05T07:26:37.608Z,99282.03
2023-04-05T07:29:06.810Z,99272.64
2023-04-05T07:31:35.669Z,99268.34
2023-04-05T07:34:04.871Z,99266.23
2023-04-05T07:36:35.907Z,99266.45
2023-04-05T07:39:05.868Z,99263.31
2023-04-05T07:41:38.349Z,99262.94
2023-04-05T07:44:13.697Z,99268.70
2023-04-05T07:46:47.566Z,99268.09
2023-04-05T07:49:16.840Z,99265.02
2023-04-05T07:51:48.282Z,99268.02
2023-04-05T07:54:16.893Z,99262.77
2023-04-05T07:56:52.413Z,99266.72
2023-04-05T07:59:21.129Z,99263.94
2023-04-05T08:01:49.889Z,99259.45
2023-04-05T08:04:19.454Z,99257.71
2023-04-05T08:06:48.187Z,99254.81
2023-04-05T08:09:17.460Z,99256.46
2023-04-05T08:11:48.958Z,99264.98
2023-04-05T08:14:17.748Z,99265.77
2023-04-05T08:16:46.295Z,99271.91
2023-04-05T08:19:15.753Z,99273.72
2023-04-05T08:21:44.281Z,99277.11
2023-04-05T08:24:13.550Z,99276.02
2023-04-05T08:26:43.546Z,99283.65
2023-04-05T08:29:12.262Z,99276.85
2023-04-05T08:31:41.025Z,99283.44
2023-04-05T08:34:09.954Z,99285.23
2023-04-05T08:36:38.257Z,99289.85
2023-04-05T08:39:06.701Z,99295.27
2023-04-05T08:41:37.581Z,99305.25
2023-04-05T08:44:09.484Z,99314.92
2023-04-05T08:46:38.484Z,99321.70
2023-04-05T08:49:08.691Z,99330.36
2023-04-05T08:51:41.057Z,99340.00
2023-04-05T08:54:11.757Z,99343.27
2023-04-05T08:56:42.533Z,99345.27
2023-04-05T08:59:12.081Z,99343.16
2023-04-05T09:01:45.473Z,99341.95
2023-04-05T09:04:23.511Z,99340.98
2023-04-05T09:06:55.870Z,99345.10
2023-04-05T09:09:35.139Z,99345.56
2023-04-05T09:12:08.195Z,99341.45
2023-04-05T09:14:38.810Z,99345.55
2023-04-05T09:17:10.319Z,99336.33
2023-04-05T09:19:39.236Z,99339.78
2023-04-05T09:22:08.840Z,99339.13
2023-04-05T09:24:43.629Z,99329.17
2023-04-05T09:27:14.436Z,99329.24
2023-04-05T09:29:48.611Z,99335.76
2023-04-05T09:32:19.485Z,99330.84
2023-04-05T09:34:48.339Z,99321.64
2023-04-05T09:37:23.712Z,99324.31
2023-04-05T09:40:03.061Z,99328.23
2023-04-05T09:42:47.386Z,99328.69
2023-04-05T09:45:18.567Z,99318.17
2023-04-05T09:48:03.152Z,99311.20
2023-04-05T09:50:32.293Z,99301.81
2023-04-05T09:53:16.422Z,99300.52
2023-04-05T09:55:46.794Z,99286.94
2023-04-05T09:58:22.474Z,99291.59
2023-04-05T10:00:57.872Z,99282.80
2023-04-05T10:03:32.816Z,99280.47
2023-04-05T10:06:01.559Z,99286.55
2023-04-05T10:08:33.493Z,99268.15
2023-04-05T10:11:04.953Z,99267.50
2023-04-05T10:13:34.731Z,99262.30
2023-04-05T10:16:07.797Z,99252.96
2023-04-05T10:18:44.596Z,99248.97
2023-04-05T10:21:20.078Z,99244.05
2023-04-05T10:23:59.177Z,99237.82
2023-04-05T10:27:01.354Z,99233.77
2023-04-05T10:29:50.957Z,99234.77
2023-04-05T10:32:31.743Z,99234.77
2023-04-05T10:35:16.404Z,99239.92
2023-04-05T10:38:05.673Z,99237.55
2023-04-05T10:40:36.469Z,99232.79
2023-04-05T10:43:12.374Z,99235.59
2023-04-05T10:45:43.055Z,99231.89
2023-04-05T10:48:31.492Z,99234.86
2023-04-05T10:51:04.650Z,99235.28
2023-04-05T10:53:34.524Z,99238.23
2023-04-05T10:56:04.250Z,99240.83
2023-04-05T10:58:36.024Z,99240.24
2023-04-05T11:01:05.232Z,99241.84
2023-04-05T11:03:49.547Z,99241.11
2023-04-05T11:06:38.422Z,99247.41
2023-04-05T11:09:16.258Z,99252.21
2023-04-05T11:11:46.917Z,99255.00
2023-04-05T11:14:26.101Z,99253.80
2023-04-05T11:16:59.975Z,99259.73
2023-04-05T11:19:43.613Z,99260.83
2023-04-05T11:22:15.187Z,99258.38
2023-04-05T11:24:55.373Z,99255.13
2023-04-05T11:27:31.155Z,99251.19
2023-04-05T11:30:01.182Z,99248.23
2023-04-05T11:32:44.570Z,99255.77
2023-04-05T11:35:23.784Z,99255.73
2023-04-05T11:38:01.337Z,99263.04
2023-04-05T11:40:32.183Z,99272.14
2023-04-05T11:43:08.055Z,99275.36
2023-04-05T11:45:38.476Z,99279.05
2023-04-05T11:48:12.175Z,99285.97
2023-04-05T11:50:42.320Z,99281.24
2023-04-05T11:53:17.957Z,99271.98
2023-04-05T11:55:48.437Z,99264.23
2023-04-05T11:58:21.629Z,99261.44
2023-04-05T12:01:05.349Z,99267.39
2023-04-05T12:03:37.574Z,99276.67
2023-04-05T12:06:07.965Z,99281.54
2023-04-05T12:08:50.298Z,99284.30
2023-04-05T12:11:25.067Z,99288.97
2023-04-05T12:13:58.873Z,99283.71
2023-04-05T12:16:28.683Z,99286.29
2023-04-05T12:18:59.695Z,99285.45
2023-04-05T12:21:29.001Z,99288.27
2023-04-05T12:23:59.158Z,99288.63
2023-04-05T12:26:31.240Z,99287.61
2023-04-05T12:29:04.562Z,99290.56
2023-04-05T12:31:46.699Z,99284.95
2023-04-05T12:34:15.426Z,99282.90
2023-04-05T12:36:46.712Z,99277.98
2023-04-05T12:39:17.458Z,99276.88
2023-04-05T12:41:56.155Z,99271.16
2023-04-05T12:44:31.704Z,99272.06
2023-04-05T12:47:03.548Z,99271.40
2023-04-05T12:49:38.288Z,99274.52
2023-04-05T12:52:06.951Z,99279.23
2023-04-05T12:54:35.748Z,99281.27
2023-04-05T12:57:09.254Z,99284.35
2023-04-05T12:59:38.956Z,99282.41
2023-04-05T13:02:07.767Z,99287.32
2023-04-05T13:04:36.095Z,99294.83
2023-04-05T13:07:04.903Z,99298.95
2023-04-05T13:09:35.509Z,99298.48
2023-04-05T13:12:03.952Z,99301.25
2023-04-05T13:14:34.044Z,99307.63
2023-04-05T13:17:02.364Z,99305.21
2023-04-05T13:19:31.155Z,99310.06
2023-04-05T13:21:59.576Z,99306.95
2023-04-05T13:24:27.916Z,99309.59
2023-04-05T13:26:58.276Z,99307.03
2023-04-05T13:29:26.594Z,99307.70
2023-04-05T13:31:54.968Z,99307.65
2023-04-05T13:34:23.970Z,99308.39
2023-04-05T13:36:52.342Z,99307.52
2023-04-05T13:39:21.969Z,99307.76
2023-04-05T13:41:50.884Z,99306.29
2023-04-05T13:44:19.480Z,99308.53
2023-04-05T13:46:48.936Z,99307.84
2023-04-05T13:49:17.281Z,99310.39
2023-04-05T13:51:48.607Z,99307.23
2023-04-05T13:54:18.088Z,99308.40
2023-04-05T13:56:49.380Z,99309.20
2023-04-05T13:59:19.705Z,99305.55
2023-04-05T14:01:48.972Z,99306.20
2023-04-05T14:04:17.848Z,99310.59
2023-04-05T14:06:46.891Z,99312.70
2023-04-05T14:09:15.690Z,99317.29
2023-04-05T14:11:47.318Z,99320.54
2023-04-05T14:14:15.773Z,99323.81
2023-04-05T14:16:47.569Z,99327.89
2023-04-05T14:19:18.543Z,99331.32
2023-04-05T14:21:47.441Z,99331.92
2023-04-05T14:24:22.038Z,99332.80
2023-04-05T14:26:51.003Z,99337.91
2023-04-05T14:29:19.789Z,99342.77
2023-04-05T14:31:49.717Z,99342.96
2023-04-05T14:34:19.332Z,99346.69
2023-04-05T14:36:47.782Z,99357.41
2023-04-05T14:39:16.888Z,99360.54
2023-04-05T14:41:50.353Z,99365.05
2023-04-05T14:44:18.731Z,99369.53
2023-04-05T14:46:48.618Z,99373.80
2023-04-05T14:49:18.723Z,99386.52
2023-04-05T14:51:48.396Z,99388.45
2023-04-05T14:54:17.133Z,99397.81
2023-04-05T14:56:46.316Z,99404.81
2023-04-05T14:59:14.678Z,99405.05
2023-04-05T15:01:47.568Z,99407.96
2023-04-05T15:04:15.912Z,99412.61
2023-04-05T15:06:44.594Z,99416.98
2023-04-05T15:09:12.871Z,99414.48
2023-04-05T15:11:42.564Z,99409.66
2023-04-05T15:14:18.241Z,99410.27
2023-04-05T15:16:57.251Z,99414.67
2023-04-05T15:19:26.055Z,99412.11
2023-04-05T15:21:54.611Z,99410.14
2023-04-05T15:24:23.024Z,99411.17
2023-04-05T15:26:51.563Z,99407.48
2023-04-05T15:29:20.026Z,99401.67
2023-04-05T15:31:48.362Z,99407.13
2023-04-05T15:34:17.457Z,99415.67
2023-04-05T15:36:49.060Z,99409.59
2023-04-05T15:39:17.923Z,99409.54
2023-04-05T15:41:46.942Z,99408.14
2023-04-05T15:44:15.625Z,99411.08
2023-04-05T15:46:44.451Z,99412.54
2023-04-05T15:49:14.157Z,99412.45
2023-04-05T15:51:43.945Z,99410.25
2023-04-05T15:54:18.799Z,99411.90
2023-04-05T15:56:48.783Z,99409.95
2023-04-05T15:59:17.455Z,99410.09
2023-04-05T16:01:46.104Z,99413.07
2023-04-05T16:04:14.993Z,99415.21
2023-04-05T16:06:47.126Z,99420.39
2023-04-05T16:09:15.494Z,99418.61
2023-04-05T16:11:43.846Z,99418.34
2023-04-05T16:14:13.350Z,99419.24
2023-04-05T16:16:52.766Z,99424.27
2023-04-05T16:19:24.882Z,99427.82
2023-04-05T16:21:57.180Z,99425.64
2023-04-05T16:24:27.837Z,99421.77
2023-04-05T16:26:56.987Z,99423.22
2023-04-05T16:29:25.882Z,99420.70
2023-04-05T16:31:54.347Z,99426.95
2023-04-05T16:34:23.305Z,99432.98
2023-04-05T16:36:53.104Z,99439.08
2023-04-05T16:39:21.436Z,99432.48
2023-04-05T16:41:49.903Z,99435.89
2023-04-05T16:44:18.879Z,99436.58
2023-04-05T16:46:54.080Z,99437.21
2023-04-05T16:49:22.781Z,99434.36
2023-04-05T16:51:52.159Z,99420.22
2023-04-05T16:54:21.657Z,99417.08
2023-04-05T16:56:49.956Z,99412.35
2023-04-05T16:59:18.309Z,99413.15
2023-04-05T17:01:46.776Z,99417.35
2023-04-05T17:04:16.830Z,99426.65
2023-04-05T17:06:52.105Z,99438.05
2023-04-05T17:09:23.294Z,99439.56
2023-04-05T17:11:51.732Z,99444.30
2023-04-05T17:14:24.346Z,99450.63
2023-04-05T17:16:53.065Z,99451.04
2023-04-05T17:19:21.508Z,99459.39
2023-04-05T17:21:50.320Z,99456.45
2023-04-05T17:24:18.728Z,99465.21
2023-04-05T17:26:47.147Z,99467.98
2023-04-05T17:29:17.775Z,99471.02
2023-04-05T17:31:46.426Z,99467.20
2023-04-05T17:34:16.837Z,99468.28
2023-04-05T17:36:46.796Z,99471.56
2023-04-05T17:39:16.521Z,99470.42
2023-04-05T17:41:46.692Z,99464.34
2023-04-05T17:44:15.847Z,99468.17
2023-04-05T17:46:51.069Z,99467.73
2023-04-05T17:49:22.581Z,99465.26
2023-04-05T17:51:51.030Z,99466.66
2023-04-05T17:54:19.430Z,99465.99
2023-04-05T17:56:47.748Z,99465.80
2023-04-05T17:59:16.191Z,99466.21
2023-04-05T18:01:45.615Z,99470.08
2023-04-05T18:04:15.188Z,99465.13
2023-04-05T18:06:43.589Z,99467.46
2023-04-05T18:09:12.647Z,99469.72
2023-04-05T18:11:41.769Z,99468.61
2023-04-05T18:14:10.488Z,99476.10
2023-04-05T18:16:39.268Z,99477.66
2023-04-05T18:19:08.573Z,99480.88
2023-04-05T18:21:37.064Z,99473.86
2023-04-05T18:24:07.402Z,99468.52
2023-04-05T18:26:36.326Z,99471.41
2023-04-05T18:29:05.426Z,99471.75
2023-04-05T18:31:34.035Z,99470.21
2023-04-05T18:34:06.148Z,99463.89
2023-04-05T18:36:36.472Z,99461.11
2023-04-05T18:39:05.462Z,99460.16
2023-04-05T18:41:34.113Z,99457.46
2023-04-05T18:44:02.485Z,99455.44
2023-04-05T18:46:30.948Z,99456.34
2023-04-05T18:48:59.785Z,99456.91
2023-04-05T18:51:28.850Z,99457.59
2023-04-05T18:53:58.837Z,99458.81
2023-04-05T18:56:28.448Z,99456.39
2023-04-05T18:58:56.956Z,99457.02
2023-04-05T19:01:26.228Z,99460.27
2023-04-05T19:03:54.665Z,99456.52
2023-04-05T19:06:23.131Z,99456.06
2023-04-05T19:08:52.947Z,99455.84
2023-04-05T19:11:22.305Z,99455.81
2023-04-05T19:13:51.037Z,99457.30
2023-04-05T19:16:33.159Z,99455.45
2023-04-05T19:19:06.731Z,99452.84
2023-04-05T19:21:35.583Z,99448.98
2023-04-05T19:24:04.744Z,99447.36
2023-04-05T19:26:33.946Z,99444.77
2023-04-05T19:29:03.727Z,99440.11
2023-04-05T19:31:32.562Z,99438.01
2023-04-05T19:34:01.645Z,99441.77
2023-04-05T19:36:30.342Z,99441.55
2023-04-05T19:38:58.738Z,99445.55
2023-04-05T19:44:58.262Z,99444.88
2023-04-05T19:47:26.926Z,99448.45
2023-04-05T19:50:00.702Z,99450.59
2023-04-05T19:52:48.115Z,99454.81
2023-04-05T19:55:37.636Z,99454.89
2023-04-05T19:58:10.601Z,99458.73
2023-04-05T20:00:42.383Z,99464.67
2023-04-05T20:03:32.969Z,99464.62
2023-04-05T20:06:11.342Z,99467.23
2023-04-05T20:08:43.112Z,99462.96
2023-04-05T20:11:17.640Z,99465.27
2023-04-05T20:13:56.591Z,99463.83
2023-04-05T20:16:31.244Z,99457.32
2023-04-05T20:19:06.951Z,99459.91
2023-04-05T20:21:41.436Z,99461.64
2023-04-05T20:24:14.636Z,99458.54
2023-04-05T20:26:46.208Z,99454.17
2023-04-05T20:29:17.231Z,99451.73
2023-04-05T20:31:46.957Z,99448.36
2023-04-05T20:34:19.988Z,99453.91
2023-04-05T20:36:51.987Z,99449.47
2023-04-05T20:39:23.729Z,99450.29
2023-04-05T20:41:53.134Z,99449.83
2023-04-05T20:44:25.310Z,99454.94
2023-04-05T20:46:56.589Z,99453.55
2023-04-05T20:49:28.300Z,99454.73
2023-04-05T20:52:00.091Z,99454.56
2023-04-05T20:54:28.469Z,99460.08
2023-04-05T20:56:58.505Z,99462.58
2023-04-05T20:59:27.556Z,99464.59
2023-04-05T21:01:56.320Z,99461.52
2023-04-05T21:04:25.031Z,99466.65
2023-04-05T21:06:54.031Z,99467.70
2023-04-05T21:09:23.720Z,99467.55
2023-04-05T21:11:54.267Z,99470.34
2023-04-05T21:14:22.512Z,99472.59
2023-04-05T21:16:50.988Z,99473.71
2023-04-05T21:19:19.390Z,99475.34
2023-04-05T21:21:47.689Z,99470.24
2023-04-05T21:24:16.217Z,99472.27
2023-04-05T21:26:44.566Z,99472.88
2023-04-05T21:29:14.647Z,99467.41
2023-04-05T21:31:43.086Z,99474.00
2023-04-05T21:34:11.582Z,99480.18
2023-04-05T21:36:40.828Z,99478.73
2023-04-05T21:39:10.014Z,99481.48
2023-04-05T21:41:38.573Z,99483.67
2023-04-05T21:44:09.261Z,99484.16
2023-04-05T21:46:38.072Z,99484.92
2023-04-05T21:49:06.607Z,99490.47
2023-04-05T21:51:35.531Z,99490.14
2023-04-05T21:54:03.840Z,99496.07
2023-04-05T21:56:32.640Z,99496.03
2023-04-05T21:59:01.276Z,99493.39
2023-04-05T22:01:29.785Z,99495.35
2023-04-05T22:03:59.192Z,99497.27
2023-04-05T22:06:27.595Z,99497.65
2023-04-05T22:08:56.270Z,99500.24
2023-04-05T22:11:25.158Z,99497.15
2023-04-05T22:13:55.038Z,99505.86
2023-04-05T22:16:23.444Z,99507.27
2023-04-05T22:18:52.097Z,99508.70
2023-04-05T22:21:20.690Z,99509.06
2023-04-05T22:23:49.228Z,99512.84
2023-04-05T22:26:17.542Z,99509.70
2023-04-05T22:28:46.339Z,99509.25
2023-04-05T22:31:15.070Z,99514.63
2023-04-05T22:33:45.748Z,99517.28
2023-04-05T22:36:14.182Z,99512.85
2023-04-05T22:38:43.940Z,99511.52
2023-04-05T22:41:13.088Z,99509.41
2023-04-05T22:43:42.193Z,99510.02
2023-04-05T22:46:10.750Z,99513.90
2023-04-05T22:48:39.030Z,99514.27
2023-04-05T22:51:08.571Z,99520.10
2023-04-05T22:53:37.181Z,99519.52
2023-04-05T22:56:11.292Z,99519.55
2023-04-05T22:58:41.100Z,99519.95
2023-04-05T23:01:11.759Z,99518.86
2023-04-05T23:03:40.190Z,99515.23
2023-04-05T23:06:08.552Z,99513.33
2023-04-05T23:08:37.158Z,99514.18
2023-04-05T23:11:10.164Z,99512.33
2023-04-05T23:13:39.642Z,99518.10
2023-04-05T23:16:08.076Z,99519.91
2023-04-05T23:18:39.873Z,99523.63
2023-04-05T23:21:08.974Z,99529.26
2023-04-05T23:23:37.622Z,99533.73
2023-04-05T23:26:06.320Z,99530.79
2023-04-05T23:28:34.946Z,99528.11
2023-04-05T23:31:04.691Z,99532.48
2023-04-05T23:33:33.927Z,99528.11
2023-04-05T23:36:02.971Z,99534.34
2023-04-05T23:38:31.841Z,99533.64
2023-04-05T23:41:00.155Z,99535.57
2023-04-05T23:43:28.881Z,99537.88
2023-04-05T23:45:57.422Z,99537.84
2023-04-05T23:48:29.229Z,99537.70
2023-04-05T23:50:57.885Z,99539.39
2023-04-05T23:53:26.493Z,99539.66
2023-04-05T23:55:57.027Z,99547.08
2023-04-05T23:58:25.791Z,99550.30
